This is the latest recevied weather packets stored in our database for station/object AD0YN. If no packets are shown the sender has not sent any weather packets the latest 10 day(s).
| Time | Temp. | Humidity | Pressure | Rain* | Wind** | Luminosity | Snow |
|---|---|---|---|---|---|---|---|
| 1777490740 | 16.11° C | 51% | 1018.8 hPa | 0 mm | - | 992 W/m² | - |
| 1777490437 | 16.11° C | 51% | 1018.7 hPa | 0 mm | - | 229 W/m² | - |
| 1777490133 | 16.11° C | 51% | 1018.8 hPa | 0 mm | - | 998 W/m² | - |
| 1777489831 | 16.67° C | 45% | 1018.8 hPa | 0 mm | - | 246 W/m² | - |
| 1777489528 | 16.67° C | 51% | 1018.9 hPa | 0 mm | - | 1031 W/m² | - |
| 1777489225 | 16.11° C | 51% | 1018.9 hPa | 0 mm | - | 998 W/m² | - |
| 1777488922 | 16.11° C | 52% | 1018.9 hPa | 0 mm | - | 1040 W/m² | - |
| 1777488619 | 15.56° C | 49% | 1019.2 hPa | 0 mm | - | 253 W/m² | - |
| 1777488317 | 15° C | 48% | 1019.2 hPa | 0 mm | - | 1072 W/m² | - |
| 1777488015 | 15° C | 50% | 1019.4 hPa | 0 mm | - | 431 W/m² | - |
| 1777487712 | 15° C | 50% | 1019.4 hPa | 0 mm | - | 372 W/m² | - |
| 1777487410 | 15.56° C | 48% | 1019.3 hPa | 0 mm | - | 326 W/m² | - |
| 1777487107 | 15° C | 48% | 1019.3 hPa | 0 mm | - | 986 W/m² | - |
| 1777486802 | 15.56° C | 52% | 1019.2 hPa | 0 mm | - | 285 W/m² | - |
| 1777486500 | 15° C | 51% | 1019.2 hPa | 0 mm | - | 330 W/m² | - |
| 1777486198 | 15.56° C | 49% | 1019.4 hPa | 0 mm | - | 1122 W/m² | - |
| 1777485895 | 15° C | 53% | 1019.4 hPa | 0 mm | - | 1096 W/m² | - |
| 1777485590 | 15° C | 53% | 1019.7 hPa | 0 mm | - | 838 W/m² | - |
| 1777485286 | 15° C | 51% | 1019.8 hPa | 0 mm | - | 900 W/m² | - |
| 1777484983 | 15° C | 52% | 1019.7 hPa | 0 mm | - | 319 W/m² | - |
| 1777484680 | 13.89° C | 61% | 1019.7 hPa | 0 mm | - | 912 W/m² | - |
| 1777484377 | 13.89° C | 58% | 1019.8 hPa | 0 mm | - | 336 W/m² | - |
| 1777484072 | 14.44° C | 54% | 1020 hPa | 0 mm | - | 342 W/m² | - |
| 1777483769 | 15° C | 52% | 1019.7 hPa | 0 mm | - | 778 W/m² | - |
| 1777483466 | 13.89° C | 60% | 1020 hPa | 0 mm | - | 974 W/m² | - |
* Rain latest hour (hover to see other rain measurements)
** Current wind speed in m/s (hover to see current wind gust speed)